createdAt,value
2023-01-09T00:01:26.494Z,46.25
2023-01-09T00:03:51.216Z,42.45
2023-01-09T00:06:16.117Z,48.20
2023-01-09T00:08:40.725Z,40.35
2023-01-09T00:11:05.327Z,36.05
2023-01-09T00:13:29.811Z,33.60
2023-01-09T00:15:55.537Z,34.38
2023-01-09T00:18:19.995Z,34.50
2023-01-09T00:20:44.342Z,39.30
2023-01-09T00:23:08.857Z,36.03
2023-01-09T00:25:33.592Z,36.33
2023-01-09T00:27:58.033Z,35.45
2023-01-09T00:30:22.604Z,34.67
2023-01-09T00:32:48.868Z,32.60
2023-01-09T00:35:16.966Z,31.27
2023-01-09T00:37:41.377Z,32.60
2023-01-09T00:40:06.398Z,32.70
2023-01-09T00:42:35.301Z,32.63
2023-01-09T00:45:03.407Z,33.78
2023-01-09T00:47:30.574Z,37.40
2023-01-09T00:49:59.235Z,33.15
2023-01-09T00:52:24.096Z,32.15
2023-01-09T00:54:49.143Z,32.85
2023-01-09T00:57:14.872Z,30.05
2023-01-09T00:59:39.341Z,33.08
2023-01-09T01:02:03.803Z,33.83
2023-01-09T01:04:46.007Z,32.67
2023-01-09T01:07:29.127Z,34.60
2023-01-09T01:09:53.537Z,34.40
2023-01-09T01:12:18.010Z,34.67
2023-01-09T01:14:42.495Z,32.88
2023-01-09T01:17:07.844Z,34.33
2023-01-09T01:19:32.381Z,34.33
2023-01-09T01:21:57.457Z,33.03
2023-01-09T01:24:23.313Z,31.00
2023-01-09T01:26:48.357Z,34.25
2023-01-09T01:29:12.937Z,33.10
2023-01-09T01:31:37.302Z,31.73
2023-01-09T01:34:01.675Z,32.65
2023-01-09T01:36:26.165Z,33.15
2023-01-09T01:38:50.624Z,31.27
2023-01-09T01:41:29.572Z,30.35
2023-01-09T01:43:56.102Z,30.65
2023-01-09T01:46:20.601Z,31.55
2023-01-09T01:48:45.710Z,30.33
2023-01-09T01:51:10.768Z,30.75
2023-01-09T01:53:37.862Z,29.65
2023-01-09T01:56:07.572Z,30.67
2023-01-09T01:58:35.410Z,29.33
2023-01-09T02:01:00.174Z,28.02
2023-01-09T02:03:29.407Z,32.17
2023-01-09T02:05:53.780Z,29.02
2023-01-09T02:08:18.985Z,29.40
2023-01-09T02:10:44.038Z,30.00
2023-01-09T02:13:10.273Z,37.45
2023-01-09T02:15:47.733Z,30.25
2023-01-09T02:18:35.763Z,31.08
2023-01-09T02:21:04.279Z,30.13
2023-01-09T02:24:14.501Z,32.97
2023-01-09T02:27:04.499Z,53.85
2023-01-09T02:32:11.911Z,30.45
2023-01-09T02:34:43.670Z,76.40
2023-01-09T02:37:18.859Z,53.72
2023-01-09T02:39:52.802Z,40.58
2023-01-09T02:42:22.441Z,32.55
2023-01-09T02:44:46.843Z,29.77
2023-01-09T02:47:49.834Z,28.55
2023-01-09T02:50:19.763Z,26.67
2023-01-09T02:55:38.514Z,25.70
2023-01-09T02:58:11.411Z,26.75
2023-01-09T03:00:42.226Z,25.92
2023-01-09T03:03:13.190Z,25.67
2023-01-09T03:05:44.388Z,26.10
2023-01-09T03:08:14.285Z,26.02
2023-01-09T03:10:43.587Z,23.77
2023-01-09T03:13:13.263Z,28.10
2023-01-09T03:15:40.734Z,26.27
2023-01-09T03:18:07.019Z,25.90
2023-01-09T03:20:32.581Z,24.95
2023-01-09T03:23:00.179Z,23.88
2023-01-09T03:25:24.921Z,25.48
2023-01-09T03:27:49.592Z,24.90
2023-01-09T03:30:14.478Z,25.25
2023-01-09T03:32:38.792Z,25.20
2023-01-09T03:35:03.121Z,22.83
2023-01-09T03:37:27.599Z,24.13
2023-01-09T03:39:53.318Z,24.83
2023-01-09T03:42:17.862Z,23.80
2023-01-09T03:44:42.167Z,24.50
2023-01-09T03:47:06.556Z,26.05
2023-01-09T03:49:30.843Z,25.92
2023-01-09T03:51:55.149Z,26.05
2023-01-09T03:54:19.548Z,26.88
2023-01-09T03:56:45.960Z,25.67
2023-01-09T03:59:10.356Z,24.55
2023-01-09T04:01:35.427Z,26.02
2023-01-09T04:04:00.017Z,25.33
2023-01-09T04:06:24.351Z,23.42
2023-01-09T04:08:48.725Z,23.55
2023-01-09T04:11:13.049Z,25.25
2023-01-09T04:13:38.750Z,26.27
2023-01-09T04:16:04.164Z,26.33
2023-01-09T04:18:28.629Z,24.08
2023-01-09T04:20:55.208Z,28.20
2023-01-09T04:23:19.672Z,25.58
2023-01-09T04:25:44.193Z,24.77
2023-01-09T04:28:08.506Z,27.30
2023-01-09T04:30:34.338Z,24.35
2023-01-09T04:32:58.826Z,25.50
2023-01-09T04:35:23.602Z,25.48
2023-01-09T04:37:48.337Z,25.13
2023-01-09T04:40:14.149Z,23.05
2023-01-09T04:42:38.626Z,22.60
2023-01-09T04:45:02.952Z,24.83
2023-01-09T04:47:31.159Z,25.27
2023-01-09T04:50:01.613Z,24.23
2023-01-09T04:52:26.796Z,22.83
2023-01-09T04:54:51.154Z,21.67
2023-01-09T04:57:15.603Z,21.95
2023-01-09T04:59:39.919Z,20.55
2023-01-09T05:02:04.449Z,24.17
2023-01-09T05:04:30.289Z,21.70
2023-01-09T05:06:54.865Z,21.50
2023-01-09T05:09:19.519Z,22.45
2023-01-09T05:11:46.235Z,21.88
2023-01-09T05:14:10.587Z,23.52
2023-01-09T05:16:35.126Z,22.65
2023-01-09T05:19:00.566Z,20.50
2023-01-09T05:21:26.490Z,21.75
2023-01-09T05:23:51.001Z,16.55
2023-01-09T05:26:15.448Z,19.35
2023-01-09T05:28:39.721Z,19.73
2023-01-09T05:31:04.141Z,21.17
2023-01-09T05:33:28.569Z,22.17
2023-01-09T05:35:52.969Z,22.92
2023-01-09T05:38:18.957Z,21.48
2023-01-09T05:40:43.367Z,21.33
2023-01-09T05:43:07.681Z,21.60
2023-01-09T05:45:32.055Z,21.75
2023-01-09T05:47:56.413Z,22.85
2023-01-09T05:50:21.066Z,22.23
2023-01-09T05:52:45.511Z,23.50
2023-01-09T05:55:13.464Z,25.13
2023-01-09T05:57:37.721Z,23.63
2023-01-09T06:00:02.101Z,21.65
2023-01-09T06:02:31.496Z,20.40
2023-01-09T06:04:56.271Z,22.17
2023-01-09T06:07:23.363Z,20.02
2023-01-09T06:09:47.864Z,19.27
2023-01-09T06:12:14.025Z,19.17
2023-01-09T06:14:38.402Z,20.65
2023-01-09T06:17:23.285Z,19.35
2023-01-09T06:19:50.488Z,20.42
2023-01-09T06:22:15.003Z,20.17
2023-01-09T06:24:39.519Z,19.58
2023-01-09T06:27:22.365Z,19.05
2023-01-09T06:29:46.773Z,21.27
2023-01-09T06:32:11.161Z,26.27
2023-01-09T06:34:35.716Z,27.73
2023-01-09T06:37:00.155Z,18.77
2023-01-09T06:39:24.682Z,19.10
2023-01-09T06:41:49.295Z,20.02
2023-01-09T06:44:15.156Z,18.48
2023-01-09T06:46:39.752Z,18.10
2023-01-09T06:49:04.104Z,18.88
2023-01-09T06:51:28.558Z,18.42
2023-01-09T06:53:52.864Z,20.70
2023-01-09T06:56:17.319Z,19.83
2023-01-09T06:58:41.734Z,17.92
2023-01-09T07:01:07.870Z,18.50
2023-01-09T07:03:33.738Z,17.27
2023-01-09T07:05:58.487Z,16.52
2023-01-09T07:08:23.088Z,16.88
2023-01-09T07:10:47.450Z,16.52
2023-01-09T07:13:12.229Z,19.45
2023-01-09T07:15:36.830Z,20.02
2023-01-09T07:18:02.684Z,17.02
2023-01-09T07:20:28.432Z,19.02
2023-01-09T07:22:54.083Z,20.98
2023-01-09T07:25:18.599Z,18.20
2023-01-09T07:27:43.122Z,21.23
2023-01-09T07:30:09.733Z,16.67
2023-01-09T07:32:34.349Z,19.25
2023-01-09T07:35:00.198Z,19.23
2023-01-09T07:37:24.816Z,15.50
2023-01-09T07:39:49.326Z,13.38
2023-01-09T07:42:13.946Z,14.63
2023-01-09T07:44:38.352Z,15.23
2023-01-09T07:47:02.800Z,15.27
2023-01-09T07:49:27.140Z,15.90
2023-01-09T07:51:52.861Z,16.20
2023-01-09T07:54:17.436Z,20.17
2023-01-09T07:56:42.097Z,17.85
2023-01-09T07:59:06.424Z,17.67
2023-01-09T08:01:31.068Z,18.48
2023-01-09T08:03:55.533Z,14.02
2023-01-09T08:06:20.058Z,16.10
2023-01-09T08:08:45.845Z,17.20
2023-01-09T08:11:11.127Z,17.23
2023-01-09T08:13:35.436Z,16.65
2023-01-09T08:15:59.869Z,16.27
2023-01-09T08:18:24.204Z,15.15
2023-01-09T08:20:49.881Z,15.40
2023-01-09T08:23:14.542Z,15.75
2023-01-09T08:25:40.443Z,18.10
2023-01-09T08:28:04.855Z,17.00
2023-01-09T08:30:29.260Z,14.93
2023-01-09T08:32:55.567Z,15.25
2023-01-09T08:35:20.630Z,15.77
2023-01-09T08:37:45.667Z,16.23
2023-01-09T08:40:12.114Z,17.00
2023-01-09T08:42:56.330Z,14.57
2023-01-09T08:45:38.269Z,13.95
2023-01-09T08:48:03.318Z,15.40
2023-01-09T08:50:28.392Z,14.65
2023-01-09T08:52:52.779Z,14.88
2023-01-09T08:55:17.428Z,15.35
2023-01-09T08:57:49.526Z,16.90
2023-01-09T09:00:15.468Z,18.10
2023-01-09T09:02:39.930Z,16.65
2023-01-09T09:05:04.440Z,16.00
2023-01-09T09:07:28.773Z,15.88
2023-01-09T09:09:53.472Z,17.80
2023-01-09T09:12:17.809Z,17.33
2023-01-09T09:15:00.661Z,16.88
2023-01-09T09:17:27.702Z,19.00
2023-01-09T09:19:52.002Z,18.73
2023-01-09T09:22:17.284Z,18.00
2023-01-09T09:24:41.557Z,17.13
2023-01-09T09:27:06.268Z,16.88
2023-01-09T09:29:30.592Z,16.90
2023-01-09T09:31:56.377Z,16.63
2023-01-09T09:34:20.702Z,15.98
2023-01-09T09:36:45.302Z,15.25
2023-01-09T09:39:09.745Z,15.40
2023-01-09T09:42:19.078Z,15.65
2023-01-09T09:44:59.382Z,15.93
2023-01-09T09:47:45.782Z,16.63
2023-01-09T09:50:28.363Z,16.90
2023-01-09T09:53:00.660Z,19.02
2023-01-09T09:55:29.974Z,16.90
2023-01-09T09:57:55.650Z,18.90
2023-01-09T10:00:22.627Z,20.15
2023-01-09T10:02:53.139Z,23.13
2023-01-09T10:05:24.461Z,20.83
2023-01-09T10:07:51.379Z,19.45
2023-01-09T10:10:20.512Z,19.52
2023-01-09T10:12:53.445Z,20.30
2023-01-09T10:15:22.755Z,19.42
2023-01-09T10:18:07.201Z,22.55
2023-01-09T10:20:53.153Z,21.65
2023-01-09T10:23:40.458Z,21.73
2023-01-09T10:26:11.977Z,24.13
2023-01-09T10:28:57.500Z,24.60
2023-01-09T10:31:30.615Z,23.50
2023-01-09T10:34:05.611Z,27.30
2023-01-09T10:36:57.839Z,26.77
2023-01-09T10:39:25.993Z,25.52
2023-01-09T10:41:58.645Z,25.55
2023-01-09T10:44:33.391Z,23.50
2023-01-09T10:46:58.981Z,24.48
2023-01-09T10:49:26.021Z,25.25
2023-01-09T10:52:05.582Z,24.40
2023-01-09T10:54:31.035Z,24.38
2023-01-09T10:56:57.437Z,24.33
2023-01-09T10:59:22.077Z,22.75
2023-01-09T11:01:46.699Z,23.95
2023-01-09T11:04:24.847Z,23.70
2023-01-09T11:06:56.255Z,21.58
2023-01-09T11:09:20.715Z,23.02
2023-01-09T11:11:45.536Z,22.55
2023-01-09T11:14:16.395Z,22.08
2023-01-09T11:16:51.540Z,21.27
2023-01-09T11:19:16.452Z,21.88
2023-01-09T11:21:42.103Z,21.83
2023-01-09T11:24:28.937Z,20.90
2023-01-09T11:26:55.103Z,22.40
2023-01-09T11:29:21.378Z,21.15
2023-01-09T11:31:52.761Z,20.58
2023-01-09T11:34:19.239Z,21.38
2023-01-09T11:36:43.793Z,21.20
2023-01-09T11:39:24.022Z,24.95
2023-01-09T11:41:55.219Z,22.15
2023-01-09T11:44:19.876Z,21.13
2023-01-09T11:46:45.746Z,21.83
2023-01-09T11:49:24.023Z,19.45
2023-01-09T11:52:05.244Z,21.30
2023-01-09T11:54:33.919Z,23.27
2023-01-09T11:56:58.354Z,22.48
2023-01-09T11:59:26.333Z,23.48
2023-01-09T12:02:13.186Z,22.45
2023-01-09T12:04:42.400Z,19.77
2023-01-09T12:07:48.508Z,21.03
2023-01-09T12:10:36.873Z,22.05
2023-01-09T12:13:12.878Z,21.30
2023-01-09T12:15:46.735Z,19.58
2023-01-09T12:18:27.165Z,20.75
2023-01-09T12:20:59.409Z,21.15
2023-01-09T12:23:38.940Z,20.40
2023-01-09T12:26:17.362Z,24.00
2023-01-09T12:29:14.316Z,24.25
2023-01-09T12:32:04.998Z,24.55
2023-01-09T12:34:53.848Z,23.70
2023-01-09T12:37:38.762Z,23.15
2023-01-09T12:40:12.897Z,21.08
2023-01-09T12:42:47.057Z,20.55
2023-01-09T12:45:28.374Z,24.30
2023-01-09T12:47:55.691Z,22.02
2023-01-09T12:50:36.525Z,19.10
2023-01-09T12:53:10.552Z,21.73
2023-01-09T12:55:37.881Z,19.42
2023-01-09T12:58:09.662Z,19.35
2023-01-09T13:00:38.577Z,17.65
2023-01-09T13:03:13.794Z,18.02
2023-01-09T13:05:42.870Z,17.73
2023-01-09T13:08:13.836Z,17.60
2023-01-09T13:10:43.326Z,17.38
2023-01-09T13:13:15.688Z,17.25
2023-01-09T13:15:45.235Z,17.70
2023-01-09T13:18:20.880Z,18.08
2023-01-09T13:20:49.086Z,18.42
2023-01-09T13:23:23.085Z,18.60
2023-01-09T13:25:50.583Z,17.35
2023-01-09T13:28:21.011Z,17.25
2023-01-09T13:31:08.882Z,18.38
2023-01-09T13:33:36.503Z,20.00
2023-01-09T13:36:03.674Z,19.63
2023-01-09T13:38:36.583Z,19.45
2023-01-09T13:41:28.783Z,18.88
2023-01-09T13:44:01.612Z,18.95
2023-01-09T13:46:50.660Z,20.30
2023-01-09T13:49:35.607Z,19.40
2023-01-09T13:52:05.809Z,20.10
2023-01-09T13:55:16.202Z,18.35
2023-01-09T13:57:48.205Z,20.42
2023-01-09T14:00:53.758Z,18.63
2023-01-09T14:03:22.920Z,18.75
2023-01-09T14:08:43.111Z,18.23
2023-01-09T14:11:08.334Z,18.08
2023-01-09T14:13:35.964Z,19.33
2023-01-09T14:16:10.542Z,19.05
2023-01-09T14:18:43.446Z,19.90
2023-01-09T14:21:22.046Z,19.85
2023-01-09T14:23:59.504Z,19.95
2023-01-09T14:26:47.964Z,20.88
2023-01-09T14:29:43.729Z,20.65
2023-01-09T14:32:43.490Z,20.50
2023-01-09T14:35:25.627Z,21.52
2023-01-09T14:38:03.103Z,20.27
2023-01-09T14:40:28.976Z,22.58
2023-01-09T14:43:00.511Z,21.77
2023-01-09T14:45:33.399Z,22.52
2023-01-09T14:48:11.213Z,22.77
2023-01-09T14:50:45.830Z,24.13
2023-01-09T14:53:21.097Z,26.42
2023-01-09T14:56:00.422Z,23.98
2023-01-09T14:58:29.263Z,27.95
2023-01-09T15:00:59.908Z,24.88
2023-01-09T15:05:52.959Z,22.83
2023-01-09T15:08:21.047Z,23.02
2023-01-09T15:10:51.353Z,22.75
2023-01-09T15:13:19.547Z,25.45
2023-01-09T15:15:50.344Z,29.55
2023-01-09T15:18:29.474Z,28.42
2023-01-09T15:20:59.219Z,25.77
2023-01-09T15:23:25.635Z,25.73
2023-01-09T15:25:56.680Z,24.10
2023-01-09T15:28:44.909Z,25.30
2023-01-09T15:31:15.405Z,23.83
2023-01-09T15:33:43.498Z,24.95
2023-01-09T15:36:16.925Z,24.20
2023-01-09T15:38:53.744Z,24.70
2023-01-09T15:41:40.927Z,24.05
2023-01-09T15:44:08.227Z,23.48
2023-01-09T15:46:40.458Z,23.30
2023-01-09T15:49:13.619Z,23.90
2023-01-09T15:51:43.882Z,24.63
2023-01-09T15:54:11.916Z,24.30
2023-01-09T15:56:39.731Z,24.85
2023-01-09T15:59:18.295Z,25.08
2023-01-09T16:02:07.665Z,26.42
2023-01-09T16:04:42.142Z,25.35
2023-01-09T16:07:17.666Z,25.90
2023-01-09T16:09:47.593Z,27.42
2023-01-09T16:14:46.611Z,27.95
2023-01-09T16:17:21.563Z,27.80
2023-01-09T16:19:50.696Z,28.30
2023-01-09T16:22:21.893Z,37.55
2023-01-09T16:24:52.066Z,35.58
2023-01-09T16:27:27.528Z,30.67
2023-01-09T16:29:58.385Z,29.95
2023-01-09T16:32:26.086Z,31.20
2023-01-09T16:35:06.144Z,26.02
2023-01-09T16:37:46.757Z,25.75
2023-01-09T16:40:36.298Z,25.20
2023-01-09T16:43:01.651Z,24.88
2023-01-09T16:45:27.113Z,27.52
2023-01-09T16:47:53.356Z,26.15
2023-01-09T16:50:25.185Z,26.60
2023-01-09T16:52:50.511Z,27.48
2023-01-09T16:55:16.754Z,25.05
2023-01-09T16:57:44.381Z,26.52
2023-01-09T17:00:17.847Z,26.90
2023-01-09T17:02:44.173Z,26.23
2023-01-09T17:05:13.591Z,27.25
2023-01-09T17:07:42.605Z,24.85
2023-01-09T17:10:23.475Z,25.90
2023-01-09T17:12:50.750Z,24.17
2023-01-09T17:15:18.031Z,25.25
2023-01-09T17:17:42.669Z,25.40
2023-01-09T17:20:17.869Z,25.85
2023-01-09T17:22:45.454Z,23.38
2023-01-09T17:25:32.343Z,24.48
2023-01-09T17:28:14.458Z,24.85
2023-01-09T17:30:38.876Z,26.75
2023-01-09T17:33:05.146Z,26.65
2023-01-09T17:35:30.440Z,30.05
2023-01-09T17:37:56.299Z,32.30
2023-01-09T17:40:22.374Z,29.88
2023-01-09T17:42:47.603Z,29.38
2023-01-09T17:45:15.895Z,28.95
2023-01-09T17:47:40.315Z,27.02
2023-01-09T17:50:05.270Z,29.92
2023-01-09T17:52:29.995Z,25.92
2023-01-09T17:54:56.159Z,28.70
2023-01-09T17:57:26.822Z,25.80
2023-01-09T17:59:54.447Z,26.65
2023-01-09T18:02:22.289Z,26.23
2023-01-09T18:04:48.768Z,28.90
2023-01-09T18:07:24.175Z,28.23
2023-01-09T18:10:27.948Z,24.95
2023-01-09T18:12:56.135Z,29.65
2023-01-09T18:15:21.919Z,27.77
2023-01-09T18:17:48.613Z,29.70
2023-01-09T18:20:16.136Z,28.23
2023-01-09T18:22:43.961Z,32.10
2023-01-09T18:25:13.106Z,28.67
2023-01-09T18:27:40.120Z,30.25
2023-01-09T18:30:06.867Z,43.95
2023-01-09T18:32:38.730Z,42.17
2023-01-09T18:35:06.487Z,35.72
2023-01-09T18:37:31.613Z,32.30
2023-01-09T18:40:05.002Z,30.27
2023-01-09T18:42:30.827Z,27.65
2023-01-09T18:44:55.116Z,28.75
2023-01-09T18:47:19.543Z,24.73
2023-01-09T18:49:43.871Z,25.50
2023-01-09T18:52:08.366Z,25.58
2023-01-09T18:54:32.899Z,26.83
2023-01-09T18:56:59.702Z,25.23
2023-01-09T18:59:28.600Z,23.70
2023-01-09T19:01:53.990Z,23.70
2023-01-09T19:04:22.434Z,23.77
2023-01-09T19:06:49.356Z,24.65
2023-01-09T19:09:14.481Z,23.60
2023-01-09T19:11:39.223Z,23.35
2023-01-09T19:14:03.631Z,22.65
2023-01-09T19:16:29.508Z,22.02
2023-01-09T19:18:53.834Z,21.50
2023-01-09T19:21:23.876Z,22.05
2023-01-09T19:26:23.809Z,20.75
2023-01-09T19:28:51.937Z,20.25
2023-01-09T19:31:21.930Z,21.10
2023-01-09T19:33:52.669Z,20.95
2023-01-09T19:36:17.381Z,18.42
2023-01-09T19:38:41.777Z,18.98
2023-01-09T19:41:13.119Z,18.60
2023-01-09T19:43:40.625Z,18.60
2023-01-09T19:46:13.037Z,18.15
2023-01-09T19:48:38.007Z,17.65
2023-01-09T19:51:04.770Z,19.48
2023-01-09T19:53:30.330Z,21.58
2023-01-09T19:55:54.981Z,17.73
2023-01-09T19:58:19.528Z,18.10
2023-01-09T20:00:46.824Z,16.83
2023-01-09T20:03:11.707Z,17.63
2023-01-09T20:05:39.175Z,18.77
2023-01-09T20:08:06.417Z,19.23
2023-01-09T20:10:31.276Z,21.08
2023-01-09T20:12:59.701Z,18.08
2023-01-09T20:15:24.528Z,19.25
2023-01-09T20:17:52.073Z,19.15
2023-01-09T20:22:50.466Z,19.10
2023-01-09T20:25:16.704Z,20.45
2023-01-09T20:27:41.283Z,20.50
2023-01-09T20:30:10.157Z,18.40
2023-01-09T20:32:38.867Z,20.23
2023-01-09T20:35:12.921Z,20.08
2023-01-09T20:37:41.973Z,20.38
2023-01-09T20:40:17.623Z,28.00
2023-01-09T20:42:46.293Z,28.92
2023-01-09T20:45:14.737Z,47.15
2023-01-09T20:47:39.718Z,33.88
2023-01-09T20:50:07.686Z,36.75
2023-01-09T20:52:37.572Z,32.60
2023-01-09T20:55:10.382Z,38.67
2023-01-09T20:57:49.839Z,24.90
2023-01-09T21:00:23.062Z,25.00
2023-01-09T21:02:47.836Z,25.05
2023-01-09T21:05:12.428Z,27.38
2023-01-09T21:07:45.327Z,26.50
2023-01-09T21:10:15.269Z,28.27
2023-01-09T21:12:50.440Z,37.15
2023-01-09T21:59:58.976Z,27.20
2023-01-09T22:02:23.353Z,22.40
2023-01-09T22:04:49.170Z,31.52
2023-01-09T22:07:13.549Z,36.50
2023-01-09T22:09:39.148Z,42.72
2023-01-09T22:12:03.566Z,27.42
2023-01-09T22:14:29.466Z,34.20
2023-01-09T22:16:53.770Z,54.22
2023-01-09T22:19:18.653Z,40.53
2023-01-09T22:21:43.213Z,23.48
2023-01-09T22:24:08.271Z,17.45
2023-01-09T22:26:32.680Z,16.48
2023-01-09T22:28:57.709Z,16.52
2023-01-09T22:31:25.204Z,16.08
2023-01-09T22:33:53.524Z,16.67
2023-01-09T22:36:18.061Z,15.38
2023-01-09T22:38:42.549Z,14.93
2023-01-09T22:41:07.919Z,16.02
2023-01-09T22:43:32.753Z,16.65
2023-01-09T22:46:01.232Z,18.27
2023-01-09T22:48:28.819Z,16.08
2023-01-09T22:50:53.244Z,17.38
2023-01-09T22:53:17.619Z,17.23
2023-01-09T22:55:42.079Z,18.20
2023-01-09T22:58:06.407Z,17.90
2023-01-09T23:00:31.072Z,17.35
2023-01-09T23:02:55.794Z,17.73
2023-01-09T23:05:21.784Z,18.00
2023-01-09T23:07:46.548Z,17.80
2023-01-09T23:10:12.098Z,16.65
2023-01-09T23:12:37.097Z,16.52
2023-01-09T23:15:01.504Z,17.35
2023-01-09T23:17:26.010Z,14.43
2023-01-09T23:19:50.317Z,17.85
2023-01-09T23:22:19.289Z,18.30
2023-01-09T23:24:44.019Z,17.70
2023-01-09T23:27:08.723Z,19.58
2023-01-09T23:29:59.035Z,20.45
2023-01-09T23:32:23.590Z,19.80
2023-01-09T23:34:49.555Z,19.13
2023-01-09T23:37:13.935Z,21.90
2023-01-09T23:39:39.942Z,21.15
2023-01-09T23:42:21.836Z,19.98
2023-01-09T23:44:46.329Z,21.83
2023-01-09T23:47:10.639Z,20.20
2023-01-09T23:49:35.032Z,21.60
2023-01-09T23:52:01.698Z,21.70
2023-01-09T23:54:26.326Z,22.88
2023-01-09T23:56:53.376Z,21.73
2023-01-09T23:59:18.201Z,22.67
